Time;durP1;ratioP1;P1;durP2;ratioP2;P2;SDS_P1;SDS_P2;PMS_P1;PMS_P2;Temp;Humidity;BMP_temperature;BMP_pressure;BME280_temperature;BME280_humidity;BME280_pressure;Samples;Min_cycle;Max_cycle;Signal;HPM_P1;HPM_P2
2022/12/22 03:27:49;;;;;;;25.38;15.73;;;;;;;;;;4948660;29;20508;-83
2022/12/22 03:30:17;;;;;;;32.42;17.15;;;;;;;;;;4952208;28;20975;-81
2022/12/22 03:32:44;;;;;;;31.23;15.88;;;;;;;;;;4936702;29;20480;-82
2022/12/22 03:35:11;;;;;;;31.60;15.75;;;;;;;;;;4952717;28;20043;-82
2022/12/22 03:37:38;;;;;;;29.02;15.98;;;;;;;;;;4945443;29;20051;-81
2022/12/22 03:40:06;;;;;;;26.98;15.23;;;;;;;;;;4950347;28;20310;-81
2022/12/22 03:48:05;;;;;;;29.65;15.77;;;;;;;;;;4951817;28;20059;-81
2022/12/22 03:50:32;;;;;;;31.10;16.13;;;;;;;;;;4950068;29;20039;-82
2022/12/22 03:53:00;;;;;;;31.67;17.42;;;;;;;;;;4952470;29;20053;-82
2022/12/22 03:55:27;;;;;;;29.90;16.40;;;;;;;;;;4951831;28;20513;-82
2022/12/22 03:57:54;;;;;;;33.85;17.45;;;;;;;;;;4935993;29;20043;-82
2022/12/22 04:00:22;;;;;;;35.65;15.98;;;;;;;;;;4953717;29;20044;-82
2022/12/22 04:02:49;;;;;;;26.38;14.95;;;;;;;;;;4952293;29;20334;-82
2022/12/22 04:05:16;;;;;;;34.65;17.75;;;;;;;;;;4951176;28;20051;-82
2022/12/22 04:07:44;;;;;;;31.63;16.73;;;;;;;;;;4938108;29;20141;-81
2022/12/22 04:12:58;;;;;;;38.72;30.88;;;;;;;;;;4952071;28;20053;-82
2022/12/22 04:15:26;;;;;;;31.75;16.90;;;;;;;;;;4953869;29;20111;-83
2022/12/22 04:17:54;;;;;;;30.30;15.45;;;;;;;;;;4937168;29;20600;-82
2022/12/22 04:20:21;;;;;;;27.17;14.75;;;;;;;;;;4935601;29;20065;-82
2022/12/22 04:22:49;;;;;;;24.90;14.82;;;;;;;;;;4949278;29;20075;-83
2022/12/22 04:25:16;;;;;;;22.50;14.65;;;;;;;;;;4961226;29;20052;-82
2022/12/22 04:27:44;;;;;;;25.08;15.38;;;;;;;;;;4967639;28;20039;-82
2022/12/22 04:30:11;;;;;;;26.20;15.50;;;;;;;;;;4971411;29;20039;-82
2022/12/22 04:32:38;;;;;;;28.60;15.45;;;;;;;;;;4947824;28;20106;-82
2022/12/22 04:35:06;;;;;;;27.27;16.77;;;;;;;;;;4943338;29;20062;-82
2022/12/22 04:37:34;;;;;;;25.15;15.10;;;;;;;;;;4939533;29;20122;-83
2022/12/22 04:40:01;;;;;;;27.20;15.23;;;;;;;;;;4940063;29;20043;-82
2022/12/22 04:42:29;;;;;;;25.35;15.23;;;;;;;;;;4941473;29;20087;-83
2022/12/22 04:44:56;;;;;;;23.20;13.73;;;;;;;;;;4940715;29;20051;-82
2022/12/22 04:47:23;;;;;;;26.02;16.65;;;;;;;;;;4941577;29;20043;-82
2022/12/22 04:49:50;;;;;;;25.70;15.07;;;;;;;;;;4957498;28;20063;-82
2022/12/22 04:52:18;;;;;;;33.17;17.73;;;;;;;;;;4940596;29;20267;-82
2022/12/22 04:54:45;;;;;;;41.13;19.42;;;;;;;;;;4957944;29;20047;-82
2022/12/22 04:57:12;;;;;;;20.48;12.82;;;;;;;;;;4956237;28;20102;-81
2022/12/22 04:59:42;;;;;;;28.15;17.50;;;;;;;;;;4957297;29;20040;-81
2022/12/22 05:02:09;;;;;;;40.35;19.90;;;;;;;;;;4955668;29;20086;-81
2022/12/22 05:04:37;;;;;;;39.20;19.17;;;;;;;;;;4955493;28;20086;-81
2022/12/22 05:07:06;;;;;;;27.15;15.73;;;;;;;;;;4957088;28;20501;-82
2022/12/22 05:09:33;;;;;;;26.80;15.43;;;;;;;;;;4940872;29;20050;-81
2022/12/22 05:12:53;;;;;;;31.80;16.65;;;;;;;;;;4940770;29;20043;-81
2022/12/22 05:14:48;;;;;;;36.35;18.33;;;;;;;;;;4950230;29;20043;-81
2022/12/22 05:17:15;;;;;;;33.40;18.35;;;;;;;;;;4938585;29;20042;-81
2022/12/22 05:19:43;;;;;;;32.47;17.92;;;;;;;;;;4938208;29;20035;-82
2022/12/22 05:22:10;;;;;;;36.42;26.40;;;;;;;;;;4957982;29;20043;-81
2022/12/22 05:24:38;;;;;;;29.15;17.63;;;;;;;;;;4955919;29;20500;-81
2022/12/22 05:27:05;;;;;;;29.70;15.52;;;;;;;;;;4935353;29;20133;-81
2022/12/22 05:29:32;;;;;;;33.83;21.65;;;;;;;;;;4952200;29;20110;-81
2022/12/22 05:31:59;;;;;;;31.25;18.30;;;;;;;;;;4953535;29;20058;-81
2022/12/22 05:34:27;;;;;;;30.33;17.45;;;;;;;;;;4952099;28;20047;-82
2022/12/22 05:36:54;;;;;;;29.48;16.60;;;;;;;;;;4955648;28;20416;-83
2022/12/22 05:39:21;;;;;;;35.30;18.52;;;;;;;;;;4939723;29;20085;-81
2022/12/22 05:41:49;;;;;;;30.23;17.48;;;;;;;;;;4953938;28;20043;-81
2022/12/22 05:44:16;;;;;;;38.75;18.38;;;;;;;;;;4936255;29;20047;-82
2022/12/22 05:46:43;;;;;;;32.03;19.58;;;;;;;;;;4920732;29;20501;-80
2022/12/22 05:49:11;;;;;;;28.23;16.67;;;;;;;;;;4953585;29;20126;-81
2022/12/22 05:51:38;;;;;;;29.05;17.40;;;;;;;;;;4953451;29;20540;-82
2022/12/22 05:54:05;;;;;;;26.48;15.95;;;;;;;;;;4953648;29;20103;-82
2022/12/22 05:56:32;;;;;;;30.92;16.75;;;;;;;;;;4938097;29;20047;-81
2022/12/22 05:59:00;;;;;;;26.25;16.13;;;;;;;;;;4967816;28;20114;-82
2022/12/22 06:01:27;;;;;;;35.22;18.50;;;;;;;;;;4952986;29;20039;-82
2022/12/22 06:03:54;;;;;;;26.05;16.05;;;;;;;;;;4964542;29;20444;-81
2022/12/22 06:06:26;;;;;;;29.05;15.93;;;;;;;;;;4955527;29;20046;-82
2022/12/22 06:08:54;;;;;;;26.80;14.90;;;;;;;;;;4960194;29;20051;-82
2022/12/22 06:11:21;;;;;;;21.90;14.35;;;;;;;;;;4963277;29;20314;-83
2022/12/22 06:13:48;;;;;;;27.38;17.02;;;;;;;;;;4945169;29;20042;-82
2022/12/22 06:16:18;;;;;;;22.15;14.35;;;;;;;;;;4961702;29;20054;-82
2022/12/22 06:18:46;;;;;;;32.55;18.08;;;;;;;;;;4942105;29;20528;-83
2022/12/22 06:21:18;;;;;;;32.58;18.38;;;;;;;;;;4943205;29;20047;-83
2022/12/22 06:23:46;;;;;;;31.98;17.33;;;;;;;;;;4960651;29;20047;-83
2022/12/22 06:29:11;;;;;;;32.95;17.92;;;;;;;;;;4923330;29;20059;-71
2022/12/22 06:31:38;;;;;;;28.77;16.75;;;;;;;;;;4918532;29;20044;-71
2022/12/22 06:34:06;;;;;;;35.65;18.98;;;;;;;;;;4926212;29;20511;-72
2022/12/22 06:36:33;;;;;;;29.75;17.38;;;;;;;;;;4923199;29;20040;-72
2022/12/22 06:39:00;;;;;;;22.77;14.23;;;;;;;;;;4928692;29;20035;-72
2022/12/22 06:44:14;;;;;;;25.05;14.82;;;;;;;;;;4921606;29;20499;-72
2022/12/22 06:46:41;;;;;;;20.98;13.85;;;;;;;;;;4927828;29;20459;-73
2022/12/22 06:49:09;;;;;;;27.92;16.00;;;;;;;;;;4926247;29;20043;-72
2022/12/22 06:51:36;;;;;;;16.48;11.20;;;;;;;;;;4926748;29;20051;-72
2022/12/22 06:54:03;;;;;;;25.65;14.85;;;;;;;;;;4922442;29;20131;-72
2022/12/22 06:56:31;;;;;;;30.13;15.98;;;;;;;;;;4927870;29;20048;-72
2022/12/22 06:58:58;;;;;;;34.92;18.52;;;;;;;;;;4926668;29;20050;-72
2022/12/22 07:01:26;;;;;;;28.83;19.25;;;;;;;;;;4927698;29;20562;-72
2022/12/22 07:03:54;;;;;;;38.35;21.92;;;;;;;;;;4910744;29;20059;-72
2022/12/22 07:06:22;;;;;;;37.55;20.45;;;;;;;;;;4922236;29;20388;-72
2022/12/22 07:08:49;;;;;;;37.25;20.38;;;;;;;;;;4924170;29;20039;-73
2022/12/22 07:11:16;;;;;;;28.25;17.10;;;;;;;;;;4924275;29;20051;-72
2022/12/22 07:13:45;;;;;;;33.20;19.17;;;;;;;;;;4923184;29;20063;-73
2022/12/22 07:16:15;;;;;;;29.38;18.33;;;;;;;;;;4908304;29;20040;-73
2022/12/22 07:19:14;;;;;;;38.97;18.50;;;;;;;;;;4895731;29;20146;-73
2022/12/22 07:21:41;;;;;;;30.00;17.85;;;;;;;;;;4925167;29;20392;-72
2022/12/22 07:24:09;;;;;;;32.47;18.23;;;;;;;;;;4926178;29;20075;-73
2022/12/22 07:26:36;;;;;;;29.60;17.73;;;;;;;;;;4921642;29;20054;-73
2022/12/22 07:29:03;;;;;;;32.92;17.88;;;;;;;;;;4925934;29;20044;-72
2022/12/22 07:31:31;;;;;;;32.55;17.15;;;;;;;;;;4924172;29;20052;-73
2022/12/22 07:33:59;;;;;;;30.73;17.33;;;;;;;;;;4926432;29;20052;-72
2022/12/22 07:36:27;;;;;;;31.90;18.15;;;;;;;;;;4927580;29;20410;-73
2022/12/22 07:38:54;;;;;;;25.92;15.43;;;;;;;;;;4929344;29;20043;-73
2022/12/22 07:44:08;;;;;;;34.90;18.85;;;;;;;;;;4926999;29;20032;-73
2022/12/22 07:46:36;;;;;;;29.35;16.73;;;;;;;;;;4931139;29;20500;-73
2022/12/22 07:51:50;;;;;;;31.95;17.15;;;;;;;;;;4928293;29;20040;-73
2022/12/22 07:54:18;;;;;;;29.13;15.20;;;;;;;;;;4925581;29;20054;-73
2022/12/22 07:56:46;;;;;;;28.13;16.40;;;;;;;;;;4928569;29;20515;-72
2022/12/22 07:59:13;;;;;;;22.23;14.52;;;;;;;;;;4939977;28;20052;-72
2022/12/22 08:01:41;;;;;;;29.05;15.93;;;;;;;;;;4912454;29;20431;-73
2022/12/22 08:04:09;;;;;;;31.58;17.15;;;;;;;;;;4937062;28;20042;-73
2022/12/22 08:06:37;;;;;;;29.08;17.92;;;;;;;;;;4924483;29;20052;-73
2022/12/22 08:09:05;;;;;;;31.80;18.13;;;;;;;;;;4937339;28;20043;-73
2022/12/22 08:11:33;;;;;;;25.35;15.80;;;;;;;;;;4921796;29;20052;-73
2022/12/22 08:14:00;;;;;;;31.17;17.23;;;;;;;;;;4925685;29;20048;-73
2022/12/22 08:16:28;;;;;;;25.88;15.70;;;;;;;;;;4928325;29;20499;-73
2022/12/22 08:18:56;;;;;;;27.75;17.27;;;;;;;;;;4929181;29;20051;-73
2022/12/22 08:21:23;;;;;;;27.08;15.70;;;;;;;;;;4928130;29;20034;-73
2022/12/22 08:23:50;;;;;;;30.35;16.40;;;;;;;;;;4944209;28;20043;-75
2022/12/22 08:26:22;;;;;;;26.88;16.25;;;;;;;;;;4926104;29;20396;-73
2022/12/22 08:28:52;;;;;;;25.98;16.20;;;;;;;;;;4926374;29;20419;-73
2022/12/22 08:31:19;;;;;;;22.65;14.80;;;;;;;;;;4926857;29;20044;-72
2022/12/22 08:33:47;;;;;;;33.15;18.10;;;;;;;;;;4908009;29;20460;-73
2022/12/22 08:36:14;;;;;;;24.58;15.57;;;;;;;;;;4928458;29;20427;-73
2022/12/22 08:38:43;;;;;;;29.17;15.57;;;;;;;;;;4929343;29;20051;-72
2022/12/22 08:41:13;;;;;;;25.58;14.85;;;;;;;;;;4929649;29;20492;-73
2022/12/22 08:43:40;;;;;;;26.90;17.25;;;;;;;;;;4929525;29;20368;-73
2022/12/22 08:46:07;;;;;;;26.80;15.88;;;;;;;;;;4928759;29;20055;-73
2022/12/22 08:48:35;;;;;;;31.17;17.05;;;;;;;;;;4928520;29;20050;-73
2022/12/22 08:51:02;;;;;;;31.77;16.67;;;;;;;;;;4922302;29;20103;-73
2022/12/22 08:53:30;;;;;;;30.05;16.42;;;;;;;;;;4925944;29;20036;-72
2022/12/22 08:56:17;;;;;;;22.98;13.57;;;;;;;;;;4928293;29;20043;-73
2022/12/22 08:58:45;;;;;;;34.67;16.85;;;;;;;;;;4929064;29;20047;-73
2022/12/22 09:01:16;;;;;;;34.03;17.92;;;;;;;;;;4928194;29;20040;-73
2022/12/22 09:03:47;;;;;;;35.80;17.50;;;;;;;;;;4928640;29;20046;-74
2022/12/22 09:06:15;;;;;;;36.13;18.77;;;;;;;;;;4929845;29;20044;-73
2022/12/22 09:08:42;;;;;;;25.70;16.17;;;;;;;;;;4925814;29;20036;-71
2022/12/22 09:11:09;;;;;;;36.92;17.98;;;;;;;;;;4929140;29;20051;-71
2022/12/22 09:13:37;;;;;;;33.05;18.15;;;;;;;;;;4912894;29;20067;-70
2022/12/22 09:16:06;;;;;;;34.90;17.05;;;;;;;;;;4929230;29;20299;-70
2022/12/22 09:18:34;;;;;;;37.22;17.83;;;;;;;;;;4928921;29;20529;-71
2022/12/22 09:21:02;;;;;;;34.58;17.88;;;;;;;;;;4929197;29;20040;-70
2022/12/22 09:23:33;;;;;;;35.22;17.65;;;;;;;;;;4927835;29;20503;-69
2022/12/22 09:26:06;;;;;;;34.65;16.30;;;;;;;;;;4929039;29;20046;-70
2022/12/22 09:28:35;;;;;;;34.58;17.55;;;;;;;;;;4928869;29;20523;-70
2022/12/22 09:31:03;;;;;;;30.45;16.08;;;;;;;;;;4926713;29;20052;-71
2022/12/22 09:33:30;;;;;;;39.65;17.90;;;;;;;;;;4909487;29;20050;-71
2022/12/22 09:35:57;;;;;;;38.78;17.90;;;;;;;;;;4914763;29;20055;-70
2022/12/22 09:38:36;;;;;;;31.00;17.92;;;;;;;;;;4929014;29;20040;-70
2022/12/22 09:41:14;;;;;;;31.88;16.08;;;;;;;;;;4928362;29;20249;-70
2022/12/22 09:43:41;;;;;;;37.22;16.95;;;;;;;;;;4943600;29;20163;-70
2022/12/22 09:46:21;;;;;;;36.42;16.52;;;;;;;;;;4926629;29;20047;-70
2022/12/22 09:48:48;;;;;;;26.65;15.35;;;;;;;;;;4924303;29;20503;-70
2022/12/22 09:51:17;;;;;;;38.33;16.83;;;;;;;;;;4928833;29;20047;-69
2022/12/22 09:53:52;;;;;;;36.03;16.77;;;;;;;;;;4929542;29;20384;-69
2022/12/22 09:56:19;;;;;;;37.35;18.52;;;;;;;;;;4922618;29;20114;-69
2022/12/22 09:58:47;;;;;;;27.85;18.60;;;;;;;;;;4929864;29;20567;-69
2022/12/22 10:01:14;;;;;;;32.08;16.80;;;;;;;;;;4930466;29;20047;-72
2022/12/22 10:03:48;;;;;;;48.40;19.67;;;;;;;;;;4928447;29;20043;-72
2022/12/22 10:06:19;;;;;;;33.47;16.65;;;;;;;;;;4942130;28;20047;-72
2022/12/22 10:08:46;;;;;;;33.95;16.98;;;;;;;;;;4929681;29;20052;-72
2022/12/22 10:11:17;;;;;;;33.35;17.48;;;;;;;;;;4928670;29;20051;-72
2022/12/22 10:13:45;;;;;;;36.40;18.35;;;;;;;;;;4930062;29;20047;-72
2022/12/22 10:16:20;;;;;;;26.75;16.55;;;;;;;;;;4928329;29;20052;-71
2022/12/22 10:19:05;;;;;;;31.77;17.50;;;;;;;;;;4929829;29;20047;-72
2022/12/22 10:21:36;;;;;;;38.58;18.02;;;;;;;;;;4928382;29;20052;-72
2022/12/22 10:24:26;;;;;;;31.80;19.35;;;;;;;;;;4921061;29;20615;-72
2022/12/22 10:26:56;;;;;;;40.87;18.40;;;;;;;;;;4928704;29;20150;-73
2022/12/22 10:29:24;;;;;;;32.88;18.17;;;;;;;;;;4929741;29;20279;-74
2022/12/22 10:31:54;;;;;;;28.27;15.38;;;;;;;;;;4926326;29;20051;-71
2022/12/22 10:34:22;;;;;;;43.28;18.55;;;;;;;;;;4928767;29;20040;-72
2022/12/22 10:36:52;;;;;;;39.55;18.30;;;;;;;;;;4929392;29;20138;-73
2022/12/22 10:39:24;;;;;;;39.53;19.08;;;;;;;;;;4930766;29;20048;-72
2022/12/22 10:41:54;;;;;;;27.65;16.45;;;;;;;;;;4929001;29;20046;-72
2022/12/22 10:44:27;;;;;;;37.95;18.02;;;;;;;;;;4927574;29;20055;-72
2022/12/22 10:46:56;;;;;;;43.88;19.35;;;;;;;;;;4929017;29;20044;-73
2022/12/22 10:49:33;;;;;;;43.55;20.77;;;;;;;;;;4927684;29;20051;-73
2022/12/22 10:52:14;;;;;;;31.42;16.92;;;;;;;;;;4927385;29;20122;-73
2022/12/22 10:54:43;;;;;;;28.52;15.63;;;;;;;;;;4916637;29;20054;-73
2022/12/22 10:57:14;;;;;;;41.80;20.80;;;;;;;;;;4928179;29;20051;-73
2022/12/22 10:59:50;;;;;;;34.42;16.73;;;;;;;;;;4929336;29;20496;-73
2022/12/22 11:02:27;;;;;;;26.90;16.27;;;;;;;;;;4928629;29;20078;-73
2022/12/22 11:05:00;;;;;;;28.45;17.65;;;;;;;;;;4931197;29;20483;-73
2022/12/22 11:07:30;;;;;;;36.20;17.08;;;;;;;;;;4932844;29;20039;-72
2022/12/22 11:09:57;;;;;;;37.05;17.83;;;;;;;;;;4932965;29;20048;-71
2022/12/22 11:12:34;;;;;;;40.70;19.15;;;;;;;;;;4933044;29;20044;-72
2022/12/22 11:15:07;;;;;;;29.73;17.20;;;;;;;;;;4931429;29;20043;-71
2022/12/22 11:18:04;;;;;;;40.08;21.50;;;;;;;;;;4930311;29;20142;-71
2022/12/22 11:20:51;;;;;;;43.33;24.10;;;;;;;;;;4920000;29;20056;-71
2022/12/22 11:23:41;;;;;;;43.67;24.48;;;;;;;;;;4932457;29;20192;-71
2022/12/22 11:26:08;;;;;;;33.90;21.63;;;;;;;;;;4930889;29;20051;-71
2022/12/22 11:28:48;;;;;;;37.28;17.70;;;;;;;;;;4932251;29;20059;-72
2022/12/22 11:31:34;;;;;;;28.10;15.70;;;;;;;;;;4916086;29;20410;-72
2022/12/22 11:34:09;;;;;;;38.88;19.10;;;;;;;;;;4930910;29;20171;-72
2022/12/22 11:36:58;;;;;;;30.23;19.60;;;;;;;;;;4930671;29;20056;-72
2022/12/22 11:39:29;;;;;;;30.30;19.10;;;;;;;;;;4932722;29;20058;-72
2022/12/22 11:42:18;;;;;;;34.58;19.83;;;;;;;;;;4929150;29;20057;-72
2022/12/22 11:44:45;;;;;;;49.10;22.80;;;;;;;;;;4930188;29;20111;-73
2022/12/22 11:47:25;;;;;;;71.38;28.25;;;;;;;;;;4925038;29;20376;-72
2022/12/22 11:49:55;;;;;;;113.03;46.28;;;;;;;;;;4938769;29;20056;-72
2022/12/22 11:52:57;;;;;;;76.70;36.55;;;;;;;;;;4937516;29;20047;-72
2022/12/22 11:55:30;;;;;;;76.15;36.55;;;;;;;;;;4937370;29;20079;-72
2022/12/22 11:58:13;;;;;;;63.60;33.97;;;;;;;;;;4940194;29;20071;-72
2022/12/22 12:00:44;;;;;;;67.30;34.42;;;;;;;;;;4930505;29;20055;-73
2022/12/22 12:03:38;;;;;;;37.50;21.75;;;;;;;;;;4929526;29;20040;-73
2022/12/22 12:06:11;;;;;;;33.35;19.90;;;;;;;;;;4940664;29;20407;-73
2022/12/22 12:08:39;;;;;;;34.40;19.40;;;;;;;;;;4934598;29;20167;-74
2022/12/22 12:11:06;;;;;;;26.13;17.13;;;;;;;;;;4933459;29;20048;-75
2022/12/22 12:13:36;;;;;;;30.02;18.35;;;;;;;;;;4932005;29;20136;-75
2022/12/22 12:16:17;;;;;;;26.70;17.15;;;;;;;;;;4913798;29;20158;-74
2022/12/22 12:18:48;;;;;;;22.17;14.65;;;;;;;;;;4928516;29;20241;-72
2022/12/22 12:21:21;;;;;;;25.27;14.88;;;;;;;;;;4926036;29;20100;-72
2022/12/22 12:24:01;;;;;;;25.90;15.63;;;;;;;;;;4913238;29;20039;-72
2022/12/22 12:29:27;;;;;;;29.75;22.27;;;;;;;;;;4920380;29;20065;-82
2022/12/22 12:32:00;;;;;;;22.05;14.32;;;;;;;;;;4896839;29;20523;-82
2022/12/22 12:34:30;;;;;;;31.45;16.02;;;;;;;;;;4896020;29;20040;-82
2022/12/22 12:37:02;;;;;;;30.67;17.50;;;;;;;;;;4895773;29;20053;-81
2022/12/22 12:39:39;;;;;;;40.05;19.85;;;;;;;;;;4894137;29;20045;-82
2022/12/22 12:42:27;;;;;;;30.08;18.45;;;;;;;;;;4878914;29;20056;-83
2022/12/22 12:44:55;;;;;;;31.13;20.10;;;;;;;;;;4879093;29;20093;-82
2022/12/22 12:47:22;;;;;;;32.88;18.90;;;;;;;;;;4879952;29;20534;-83
2022/12/22 12:49:58;;;;;;;26.40;17.45;;;;;;;;;;4877144;29;20037;-83
2022/12/22 12:52:38;;;;;;;31.83;18.42;;;;;;;;;;4880601;29;20053;-82
2022/12/22 12:55:24;;;;;;;32.03;19.80;;;;;;;;;;4879588;29;20053;-83
2022/12/22 12:57:59;;;;;;;24.63;17.00;;;;;;;;;;4892983;29;20059;-83
2022/12/22 13:00:33;;;;;;;30.50;20.88;;;;;;;;;;4873329;29;20061;-84
2022/12/22 13:03:01;;;;;;;40.05;22.88;;;;;;;;;;4880317;29;20478;-84
2022/12/22 13:05:48;;;;;;;38.13;23.63;;;;;;;;;;4876511;29;20514;-83
2022/12/22 13:08:15;;;;;;;39.83;24.35;;;;;;;;;;4876540;29;20113;-83
2022/12/22 13:10:42;;;;;;;34.63;22.23;;;;;;;;;;4877049;29;20060;-83
2022/12/22 13:13:11;;;;;;;36.88;21.88;;;;;;;;;;4880413;29;20053;-82
2022/12/22 13:15:40;;;;;;;36.47;21.40;;;;;;;;;;4890331;29;20132;-82
2022/12/22 13:18:40;;;;;;;27.52;19.27;;;;;;;;;;4860655;29;20076;-83
2022/12/22 13:21:26;;;;;;;32.00;18.92;;;;;;;;;;4855453;29;20052;-84
2022/12/22 13:24:15;;;;;;;25.40;15.82;;;;;;;;;;4856437;29;20353;-83
2022/12/22 13:27:00;;;;;;;32.72;19.10;;;;;;;;;;4872917;29;20156;-81
2022/12/22 13:29:33;;;;;;;27.38;16.35;;;;;;;;;;4874768;29;20048;-83
2022/12/22 13:32:13;;;;;;;30.42;17.60;;;;;;;;;;4878664;29;20411;-82
2022/12/22 13:34:47;;;;;;;30.08;19.20;;;;;;;;;;4873848;29;20045;-82
2022/12/22 13:37:45;;;;;;;31.58;19.38;;;;;;;;;;4875651;29;20076;-82
2022/12/22 13:40:13;;;;;;;32.80;20.33;;;;;;;;;;4877163;29;20129;-82
2022/12/22 13:42:46;;;;;;;37.17;20.70;;;;;;;;;;4879146;29;20092;-82
2022/12/22 13:45:25;;;;;;;48.03;24.27;;;;;;;;;;4882507;29;20048;-81
2022/12/22 13:47:53;;;;;;;41.50;23.90;;;;;;;;;;4876728;29;20067;-84
2022/12/22 13:50:26;;;;;;;35.70;16.75;;;;;;;;;;4891181;29;20053;-82
2022/12/22 13:52:54;;;;;;;37.10;20.80;;;;;;;;;;4879128;29;20125;-82
2022/12/22 13:55:26;;;;;;;36.28;19.73;;;;;;;;;;4865730;29;20057;-84
2022/12/22 13:57:55;;;;;;;37.42;20.13;;;;;;;;;;4879804;29;20082;-82
2022/12/22 14:00:26;;;;;;;33.58;17.70;;;;;;;;;;4882944;29;20073;-83
2022/12/22 14:02:53;;;;;;;28.80;17.48;;;;;;;;;;4884558;29;20053;-82
2022/12/22 14:05:21;;;;;;;31.92;19.67;;;;;;;;;;4882904;29;20049;-81
2022/12/22 14:07:57;;;;;;;30.65;17.73;;;;;;;;;;4883336;29;20056;-83
2022/12/22 14:10:27;;;;;;;23.48;14.18;;;;;;;;;;4881758;29;20167;-83
2022/12/22 14:12:57;;;;;;;;;;;;;;;;;;4883080;29;20131;-82
2022/12/22 14:15:24;;;;;;;23.40;11.90;;;;;;;;;;4880811;29;19928;-83
2022/12/22 14:17:51;;;;;;;24.02;14.02;;;;;;;;;;4878742;29;20091;-83
2022/12/22 14:20:28;;;;;;;25.95;15.77;;;;;;;;;;4877799;29;20048;-81
2022/12/22 14:22:59;;;;;;;56.38;20.77;;;;;;;;;;4879355;29;20041;-82
2022/12/22 14:25:31;;;;;;;24.50;14.38;;;;;;;;;;4869604;29;20346;-83
2022/12/22 14:27:59;;;;;;;24.33;14.02;;;;;;;;;;4874545;29;20048;-83
2022/12/22 14:30:34;;;;;;;33.85;17.08;;;;;;;;;;4869381;29;20060;-82
2022/12/22 14:33:26;;;;;;;65.97;27.30;;;;;;;;;;4870671;29;20109;-82
2022/12/22 14:36:05;;;;;;;79.68;26.15;;;;;;;;;;4878921;29;20072;-82
2022/12/22 14:38:40;;;;;;;59.33;24.13;;;;;;;;;;4890212;29;20044;-83
2022/12/22 14:41:40;;;;;;;59.55;21.88;;;;;;;;;;4892585;29;20120;-82
2022/12/22 14:44:18;;;;;;;32.83;15.75;;;;;;;;;;4875738;29;20049;-81
2022/12/22 14:46:48;;;;;;;97.25;29.65;;;;;;;;;;4879672;29;20076;-79
2022/12/22 14:49:19;;;;;;;54.60;21.73;;;;;;;;;;4882318;29;20534;-82
2022/12/22 14:51:54;;;;;;;75.57;27.65;;;;;;;;;;4880448;29;20049;-83
2022/12/22 14:54:27;;;;;;;50.17;23.20;;;;;;;;;;4879495;29;20519;-83
2022/12/22 14:56:58;;;;;;;41.70;20.15;;;;;;;;;;4877970;29;20053;-82
2022/12/22 14:59:27;;;;;;;58.20;23.98;;;;;;;;;;4878057;29;20462;-83
2022/12/22 15:01:57;;;;;;;22.10;14.75;;;;;;;;;;4878042;29;20048;-84
2022/12/22 15:04:25;;;;;;;47.13;21.40;;;;;;;;;;4877989;29;20105;-83
2022/12/22 15:07:03;;;;;;;29.05;15.75;;;;;;;;;;4879668;29;20084;-83
2022/12/22 15:09:30;;;;;;;38.58;26.50;;;;;;;;;;4877803;29;20468;-84
2022/12/22 15:12:18;;;;;;;32.38;16.65;;;;;;;;;;4877051;29;20113;-83
2022/12/22 15:14:47;;;;;;;32.67;19.23;;;;;;;;;;4878098;29;20053;-82
2022/12/22 15:17:20;;;;;;;23.10;16.00;;;;;;;;;;4877224;29;20049;-82
2022/12/22 15:19:48;;;;;;;20.75;13.27;;;;;;;;;;4859644;29;20056;-82
2022/12/22 15:22:15;;;;;;;20.92;12.52;;;;;;;;;;4877061;29;20049;-82
2022/12/22 15:24:42;;;;;;;27.58;15.18;;;;;;;;;;4877094;29;20045;-81
2022/12/22 15:27:09;;;;;;;41.67;24.40;;;;;;;;;;4889015;29;20520;-83
2022/12/22 15:29:37;;;;;;;39.97;23.13;;;;;;;;;;4893575;29;20053;-82
2022/12/22 15:32:08;;;;;;;35.33;22.38;;;;;;;;;;4885957;29;20053;-82
2022/12/22 15:34:35;;;;;;;32.15;21.95;;;;;;;;;;4887101;29;20059;-82
2022/12/22 15:37:03;;;;;;;43.20;23.42;;;;;;;;;;4902728;29;20057;-82
2022/12/22 15:39:30;;;;;;;32.78;21.08;;;;;;;;;;4887228;29;20057;-82
2022/12/22 15:41:57;;;;;;;33.33;21.17;;;;;;;;;;4885730;29;20080;-81
2022/12/22 15:44:24;;;;;;;34.92;20.10;;;;;;;;;;4883275;29;20045;-83
2022/12/22 15:46:55;;;;;;;20.98;15.73;;;;;;;;;;4884290;29;20155;-82
2022/12/22 15:49:24;;;;;;;18.73;11.55;;;;;;;;;;4883540;29;20141;-82
2022/12/22 15:51:54;;;;;;;19.17;12.15;;;;;;;;;;4900060;29;20057;-82
2022/12/22 15:54:22;;;;;;;22.42;11.95;;;;;;;;;;4880193;29;20045;-81
2022/12/22 15:56:54;;;;;;;15.55;11.00;;;;;;;;;;4879577;29;20049;-80
2022/12/22 15:59:26;;;;;;;18.15;9.40;;;;;;;;;;4881356;29;20137;-82
2022/12/22 16:01:56;;;;;;;14.43;9.75;;;;;;;;;;4881064;29;20508;-82
2022/12/22 16:04:28;;;;;;;17.02;10.00;;;;;;;;;;4883700;29;20507;-81
2022/12/22 16:06:55;;;;;;;77.82;13.43;;;;;;;;;;4884150;29;20128;-83
2022/12/22 16:09:24;;;;;;;21.02;12.05;;;;;;;;;;4888518;29;20061;-83
2022/12/22 16:11:52;;;;;;;24.88;12.20;;;;;;;;;;4889305;29;20531;-82
2022/12/22 16:14:20;;;;;;;17.27;12.45;;;;;;;;;;4888299;29;20100;-81
2022/12/22 16:16:47;;;;;;;20.10;13.65;;;;;;;;;;4888117;29;20116;-82
2022/12/22 16:19:16;;;;;;;19.98;13.18;;;;;;;;;;4887323;29;20060;-82
2022/12/22 16:21:46;;;;;;;24.92;13.52;;;;;;;;;;4888451;29;20045;-82
2022/12/22 16:24:33;;;;;;;15.10;10.68;;;;;;;;;;4888939;29;20512;-83
2022/12/22 16:27:01;;;;;;;19.88;11.50;;;;;;;;;;4888576;29;20480;-82
2022/12/22 16:29:29;;;;;;;19.08;13.02;;;;;;;;;;4886298;29;20500;-83
2022/12/22 16:32:15;;;;;;;37.42;22.83;;;;;;;;;;4882827;29;20579;-84
2022/12/22 16:34:44;;;;;;;41.25;25.23;;;;;;;;;;4880097;29;20091;-83
2022/12/22 16:37:12;;;;;;;47.67;25.10;;;;;;;;;;4879701;29;20136;-83
2022/12/22 16:39:39;;;;;;;50.65;30.17;;;;;;;;;;4878910;29;20045;-82
2022/12/22 16:42:13;;;;;;;53.65;30.60;;;;;;;;;;4881100;29;20436;-81
2022/12/22 16:44:58;;;;;;;44.45;25.23;;;;;;;;;;4879788;29;20036;-81
2022/12/22 16:47:27;;;;;;;46.70;26.15;;;;;;;;;;4881820;29;20655;-82
2022/12/22 16:49:59;;;;;;;30.33;21.65;;;;;;;;;;4872724;29;20041;-82
2022/12/22 16:52:30;;;;;;;31.30;20.67;;;;;;;;;;4869891;29;20061;-83
2022/12/22 16:54:57;;;;;;;24.77;17.60;;;;;;;;;;4862250;29;20073;-81
2022/12/22 16:57:25;;;;;;;23.17;16.75;;;;;;;;;;4865363;29;20078;-82
2022/12/22 16:59:52;;;;;;;24.50;18.00;;;;;;;;;;4889206;29;20140;-81
2022/12/22 17:02:23;;;;;;;26.20;16.52;;;;;;;;;;4893931;29;20045;-83
2022/12/22 17:04:53;;;;;;;24.88;16.35;;;;;;;;;;4887926;29;20048;-83
2022/12/22 17:07:23;;;;;;;21.92;13.50;;;;;;;;;;4868048;29;20061;-82
2022/12/22 17:09:53;;;;;;;20.80;15.13;;;;;;;;;;4862380;29;20049;-82
2022/12/22 17:12:24;;;;;;;24.92;15.05;;;;;;;;;;4862755;29;20547;-83
2022/12/22 17:14:51;;;;;;;36.65;21.85;;;;;;;;;;4865014;29;20049;-83
2022/12/22 17:17:22;;;;;;;46.45;27.38;;;;;;;;;;4874988;29;20053;-83
2022/12/22 17:19:58;;;;;;;45.05;24.45;;;;;;;;;;4876274;29;20064;-82
2022/12/22 17:22:30;;;;;;;32.53;22.45;;;;;;;;;;4879901;29;20045;-82
2022/12/22 17:24:59;;;;;;;30.35;22.73;;;;;;;;;;4876010;29;20096;-82
2022/12/22 17:27:28;;;;;;;24.45;18.23;;;;;;;;;;4877049;29;20040;-82
2022/12/22 17:29:58;;;;;;;31.20;20.05;;;;;;;;;;4879376;29;20061;-83
2022/12/22 17:32:25;;;;;;;22.20;16.02;;;;;;;;;;4876765;29;20045;-83
2022/12/22 17:34:52;;;;;;;30.42;21.10;;;;;;;;;;4875804;29;20053;-82
2022/12/22 17:37:22;;;;;;;28.40;16.92;;;;;;;;;;4866462;29;20144;-84
2022/12/22 17:39:51;;;;;;;29.38;18.30;;;;;;;;;;4863567;29;20093;-84
2022/12/22 17:42:21;;;;;;;24.00;16.40;;;;;;;;;;4884001;29;20045;-84
2022/12/22 17:44:52;;;;;;;22.55;15.45;;;;;;;;;;4881519;29;20131;-82
2022/12/22 17:47:21;;;;;;;24.90;17.27;;;;;;;;;;4875477;29;20049;-83
2022/12/22 17:49:58;;;;;;;27.23;17.40;;;;;;;;;;4878795;29;20056;-82
2022/12/22 17:52:26;;;;;;;35.63;19.98;;;;;;;;;;4877437;29;20108;-83
2022/12/22 17:54:54;;;;;;;33.08;19.48;;;;;;;;;;4873149;29;20102;-84
2022/12/22 17:57:30;;;;;;;48.05;23.50;;;;;;;;;;4885973;29;20072;-83
2022/12/22 18:00:00;;;;;;;33.50;22.38;;;;;;;;;;4876177;29;20052;-85
2022/12/22 18:02:28;;;;;;;40.15;25.30;;;;;;;;;;4891384;29;20120;-85
2022/12/22 18:04:58;;;;;;;51.70;28.90;;;;;;;;;;4875488;29;20045;-85
2022/12/22 18:07:26;;;;;;;43.47;25.98;;;;;;;;;;4876316;29;20088;-83
2022/12/22 18:09:55;;;;;;;40.33;22.15;;;;;;;;;;4875992;29;20053;-85
2022/12/22 18:12:25;;;;;;;26.35;16.67;;;;;;;;;;4877862;29;20052;-82
2022/12/22 18:14:53;;;;;;;32.05;18.60;;;;;;;;;;4875329;29;20056;-84
2022/12/22 18:17:22;;;;;;;34.67;20.13;;;;;;;;;;4874384;29;20049;-84
2022/12/22 18:19:49;;;;;;;30.45;18.45;;;;;;;;;;4875438;29;20174;-84
2022/12/22 18:22:20;;;;;;;25.08;15.98;;;;;;;;;;4876205;29;20472;-85
2022/12/22 18:24:51;;;;;;;32.28;17.80;;;;;;;;;;4876558;29;20041;-84
2022/12/22 18:30:14;;;;;;;48.05;24.67;;;;;;;;;;4812760;29;20507;-76
2022/12/22 18:32:41;;;;;;;65.40;31.23;;;;;;;;;;4817141;29;20142;-75